sensor_id;sensor_type;location;lat;lon;timestamp;pressure;altitude;pressure_sealevel;temperature;humidity
15382;BME280;7789;51.364;12.358;2023-02-21T00:00:49;100310.56;;;11.49;93.60
15382;BME280;7789;51.364;12.358;2023-02-21T00:06:10;100316.47;;;11.51;93.70
15382;BME280;7789;51.364;12.358;2023-02-21T00:11:31;100309.44;;;11.52;93.86
15382;BME280;7789;51.364;12.358;2023-02-21T00:16:53;100315.63;;;11.51;94.52
15382;BME280;7789;51.364;12.358;2023-02-21T00:22:14;100313.59;;;11.54;93.94
15382;BME280;7789;51.364;12.358;2023-02-21T00:27:34;100302.28;;;11.54;94.26
15382;BME280;7789;51.364;12.358;2023-02-21T00:32:56;100308.22;;;11.56;94.30
15382;BME280;7789;51.364;12.358;2023-02-21T00:38:16;100298.69;;;11.55;94.23
15382;BME280;7789;51.364;12.358;2023-02-21T00:43:37;100294.41;;;11.54;94.23
15382;BME280;7789;51.364;12.358;2023-02-21T00:48:59;100304.53;;;11.58;94.35
15382;BME280;7789;51.364;12.358;2023-02-21T00:54:20;100306.88;;;11.61;95.10
15382;BME280;7789;51.364;12.358;2023-02-21T00:59:40;100300.25;;;11.57;94.63
15382;BME280;7789;51.364;12.358;2023-02-21T01:05:03;100293.09;;;11.59;94.76
15382;BME280;7789;51.364;12.358;2023-02-21T01:10:25;100291.31;;;11.60;95.27
15382;BME280;7789;51.364;12.358;2023-02-21T01:15:45;100288.81;;;11.58;95.02
15382;BME280;7789;51.364;12.358;2023-02-21T01:21:12;100291.44;;;11.58;94.85
15382;BME280;7789;51.364;12.358;2023-02-21T01:26:33;100288.81;;;11.58;94.96
15382;BME280;7789;51.364;12.358;2023-02-21T01:31:54;100296.69;;;11.58;95.47
15382;BME280;7789;51.364;12.358;2023-02-21T01:37:16;100292.97;;;11.61;94.95
15382;BME280;7789;51.364;12.358;2023-02-21T01:42:37;100304.25;;;11.61;94.81
15382;BME280;7789;51.364;12.358;2023-02-21T01:47:59;100308.13;;;11.57;95.44
15382;BME280;7789;51.364;12.358;2023-02-21T01:53:23;100305.38;;;11.59;95.54
15382;BME280;7789;51.364;12.358;2023-02-21T01:58:45;100296.91;;;11.55;96.08
15382;BME280;7789;51.364;12.358;2023-02-21T02:04:08;100298.22;;;11.61;95.52
15382;BME280;7789;51.364;12.358;2023-02-21T02:09:30;100283.72;;;11.57;95.84
15382;BME280;7789;51.364;12.358;2023-02-21T02:15:05;100275.28;;;11.53;96.46
15382;BME280;7789;51.364;12.358;2023-02-21T02:20:37;100262.00;;;11.45;97.66
15382;BME280;7789;51.364;12.358;2023-02-21T02:31:44;100252.97;;;11.49;98.50
15382;BME280;7789;51.364;12.358;2023-02-21T02:36:59;100248.81;;;11.47;98.08
15382;BME280;7789;51.364;12.358;2023-02-21T02:42:10;100259.13;;;11.48;98.90
15382;BME280;7789;51.364;12.358;2023-02-21T02:47:22;100245.91;;;11.50;98.37
15382;BME280;7789;51.364;12.358;2023-02-21T02:52:28;100254.47;;;11.52;98.55
15382;BME280;7789;51.364;12.358;2023-02-21T02:57:33;100253.38;;;11.54;99.07
15382;BME280;7789;51.364;12.358;2023-02-21T03:02:55;100241.25;;;11.53;98.97
15382;BME280;7789;51.364;12.358;2023-02-21T03:08:10;100241.53;;;11.50;99.88
15382;BME280;7789;51.364;12.358;2023-02-21T03:13:20;100240.00;;;11.48;100.00
15382;BME280;7789;51.364;12.358;2023-02-21T03:18:28;100231.44;;;11.46;100.00
15382;BME280;7789;51.364;12.358;2023-02-21T03:23:36;100230.22;;;11.50;100.00
15382;BME280;7789;51.364;12.358;2023-02-21T03:28:42;100227.47;;;11.51;100.00
15382;BME280;7789;51.364;12.358;2023-02-21T03:33:46;100236.81;;;11.54;100.00
15382;BME280;7789;51.364;12.358;2023-02-21T03:38:50;100225.28;;;11.56;100.00
15382;BME280;7789;51.364;12.358;2023-02-21T03:43:54;100228.84;;;11.55;100.00
15382;BME280;7789;51.364;12.358;2023-02-21T03:48:57;100237.53;;;11.56;100.00
15382;BME280;7789;51.364;12.358;2023-02-21T03:54:02;100233.16;;;11.56;100.00
15382;BME280;7789;51.364;12.358;2023-02-21T03:59:05;100235.16;;;11.53;100.00
15382;BME280;7789;51.364;12.358;2023-02-21T04:04:08;100223.88;;;11.52;100.00
15382;BME280;7789;51.364;12.358;2023-02-21T04:09:13;100227.19;;;11.54;100.00
15382;BME280;7789;51.364;12.358;2023-02-21T04:14:16;100235.78;;;11.56;100.00
15382;BME280;7789;51.364;12.358;2023-02-21T04:19:19;100230.22;;;11.50;100.00
15382;BME280;7789;51.364;12.358;2023-02-21T04:24:24;100228.84;;;11.46;100.00
15382;BME280;7789;51.364;12.358;2023-02-21T04:29:27;100215.56;;;11.38;100.00
15382;BME280;7789;51.364;12.358;2023-02-21T04:34:30;100221.91;;;11.35;100.00
15382;BME280;7789;51.364;12.358;2023-02-21T04:39:35;100217.66;;;11.34;100.00
15382;BME280;7789;51.364;12.358;2023-02-21T04:44:38;100208.84;;;11.35;100.00
15382;BME280;7789;51.364;12.358;2023-02-21T04:49:45;100197.91;;;11.30;100.00
15382;BME280;7789;51.364;12.358;2023-02-21T04:54:53;100218.03;;;11.30;100.00
15382;BME280;7789;51.364;12.358;2023-02-21T04:59:57;100215.16;;;11.33;100.00
15382;BME280;7789;51.364;12.358;2023-02-21T05:05:01;100213.38;;;11.33;100.00
15382;BME280;7789;51.364;12.358;2023-02-21T05:10:06;100211.56;;;11.34;100.00
15382;BME280;7789;51.364;12.358;2023-02-21T05:15:11;100214.59;;;11.29;100.00
15382;BME280;7789;51.364;12.358;2023-02-21T05:20:15;100217.88;;;11.31;100.00
15382;BME280;7789;51.364;12.358;2023-02-21T05:25:22;100220.25;;;11.34;100.00
15382;BME280;7789;51.364;12.358;2023-02-21T05:30:25;100227.16;;;11.35;100.00
15382;BME280;7789;51.364;12.358;2023-02-21T05:35:28;100227.97;;;11.36;100.00
15382;BME280;7789;51.364;12.358;2023-02-21T05:40:33;100235.69;;;11.37;100.00
15382;BME280;7789;51.364;12.358;2023-02-21T05:45:36;100230.19;;;11.40;100.00
15382;BME280;7789;51.364;12.358;2023-02-21T05:50:39;100236.50;;;11.38;100.00
15382;BME280;7789;51.364;12.358;2023-02-21T05:55:44;100240.78;;;11.39;100.00
15382;BME280;7789;51.364;12.358;2023-02-21T06:00:47;100251.97;;;11.41;100.00
15382;BME280;7789;51.364;12.358;2023-02-21T06:05:51;100259.56;;;11.53;100.00
15382;BME280;7789;51.364;12.358;2023-02-21T06:10:56;100268.00;;;11.57;100.00
15382;BME280;7789;51.364;12.358;2023-02-21T06:16:00;100265.91;;;11.51;100.00
15382;BME280;7789;51.364;12.358;2023-02-21T06:21:03;100277.44;;;11.48;100.00
15382;BME280;7789;51.364;12.358;2023-02-21T06:26:08;100283.66;;;11.47;100.00
15382;BME280;7789;51.364;12.358;2023-02-21T06:31:12;100288.06;;;11.47;100.00
15382;BME280;7789;51.364;12.358;2023-02-21T06:36:17;100298.38;;;11.48;100.00
15382;BME280;7789;51.364;12.358;2023-02-21T06:41:25;100292.91;;;11.51;100.00
15382;BME280;7789;51.364;12.358;2023-02-21T06:46:29;100298.00;;;11.53;100.00
15382;BME280;7789;51.364;12.358;2023-02-21T06:51:34;100300.78;;;11.51;100.00
15382;BME280;7789;51.364;12.358;2023-02-21T06:56:38;100310.41;;;11.51;100.00
15382;BME280;7789;51.364;12.358;2023-02-21T07:01:42;100320.75;;;11.52;100.00
15382;BME280;7789;51.364;12.358;2023-02-21T07:06:45;100314.41;;;11.55;100.00
15382;BME280;7789;51.364;12.358;2023-02-21T07:11:50;100332.38;;;11.59;100.00
15382;BME280;7789;51.364;12.358;2023-02-21T07:16:53;100327.31;;;11.67;100.00
15382;BME280;7789;51.364;12.358;2023-02-21T07:21:56;100331.31;;;11.71;100.00
15382;BME280;7789;51.364;12.358;2023-02-21T07:27:00;100332.31;;;11.80;100.00
15382;BME280;7789;51.364;12.358;2023-02-21T07:32:04;100332.75;;;11.94;100.00
15382;BME280;7789;51.364;12.358;2023-02-21T07:37:07;100325.88;;;12.03;100.00
15382;BME280;7789;51.364;12.358;2023-02-21T07:42:12;100332.06;;;12.11;100.00
15382;BME280;7789;51.364;12.358;2023-02-21T07:47:15;100338.69;;;12.15;100.00
15382;BME280;7789;51.364;12.358;2023-02-21T07:52:19;100330.03;;;12.24;100.00
15382;BME280;7789;51.364;12.358;2023-02-21T07:57:24;100350.72;;;12.46;100.00
15382;BME280;7789;51.364;12.358;2023-02-21T08:02:27;100351.16;;;12.51;100.00
15382;BME280;7789;51.364;12.358;2023-02-21T08:07:31;100351.41;;;12.86;100.00
15382;BME280;7789;51.364;12.358;2023-02-21T08:12:36;100357.63;;;12.76;100.00
15382;BME280;7789;51.364;12.358;2023-02-21T08:17:41;100361.91;;;12.77;99.54
15382;BME280;7789;51.364;12.358;2023-02-21T08:22:44;100364.94;;;12.82;99.70
15382;BME280;7789;51.364;12.358;2023-02-21T08:27:50;100366.88;;;12.89;98.80
15382;BME280;7789;51.364;12.358;2023-02-21T08:32:56;100371.84;;;13.01;97.86
15382;BME280;7789;51.364;12.358;2023-02-21T08:37:59;100376.25;;;13.20;96.92
15382;BME280;7789;51.364;12.358;2023-02-21T08:43:05;100372.81;;;13.56;95.83
15382;BME280;7789;51.364;12.358;2023-02-21T08:48:08;100380.50;;;13.67;94.71
15382;BME280;7789;51.364;12.358;2023-02-21T08:53:13;100377.88;;;13.67;92.98
15382;BME280;7789;51.364;12.358;2023-02-21T08:58:19;100375.31;;;13.84;93.09
15382;BME280;7789;51.364;12.358;2023-02-21T09:03:22;100380.81;;;13.91;92.55
15382;BME280;7789;51.364;12.358;2023-02-21T09:08:26;100381.34;;;13.94;91.87
15382;BME280;7789;51.364;12.358;2023-02-21T09:13:33;100385.63;;;13.95;91.11
15382;BME280;7789;51.364;12.358;2023-02-21T09:18:37;100382.56;;;14.00;90.85
15382;BME280;7789;51.364;12.358;2023-02-21T09:23:40;100385.41;;;14.16;90.25
15382;BME280;7789;51.364;12.358;2023-02-21T09:28:44;100370.31;;;14.18;88.52
15382;BME280;7789;51.364;12.358;2023-02-21T09:33:48;100373.50;;;14.12;88.45
15382;BME280;7789;51.364;12.358;2023-02-21T09:38:51;100365.38;;;14.32;88.04
15382;BME280;7789;51.364;12.358;2023-02-21T09:43:56;100374.53;;;14.28;88.09
15382;BME280;7789;51.364;12.358;2023-02-21T09:49:01;100373.72;;;14.28;87.90
15382;BME280;7789;51.364;12.358;2023-02-21T09:54:04;100387.41;;;14.31;87.76
15382;BME280;7789;51.364;12.358;2023-02-21T09:59:11;100381.66;;;14.36;86.71
15382;BME280;7789;51.364;12.358;2023-02-21T10:04:21;100393.31;;;14.33;86.81
15382;BME280;7789;51.364;12.358;2023-02-21T10:09:37;100385.50;;;14.24;86.72
15382;BME280;7789;51.364;12.358;2023-02-21T10:15:01;100393.81;;;14.19;86.99
15382;BME280;7789;51.364;12.358;2023-02-21T10:20:14;100397.97;;;14.22;87.19
15382;BME280;7789;51.364;12.358;2023-02-21T10:25:22;100407.69;;;14.12;87.06
15382;BME280;7789;51.364;12.358;2023-02-21T10:30:31;100409.91;;;14.16;86.79
15382;BME280;7789;51.364;12.358;2023-02-21T10:35:37;100412.63;;;14.24;87.05
15382;BME280;7789;51.364;12.358;2023-02-21T10:40:41;100414.69;;;14.21;86.74
15382;BME280;7789;51.364;12.358;2023-02-21T10:45:52;100425.47;;;14.27;87.79
15382;BME280;7789;51.364;12.358;2023-02-21T10:51:07;100419.75;;;14.32;86.88
15382;BME280;7789;51.364;12.358;2023-02-21T10:56:23;100415.41;;;14.40;87.02
15382;BME280;7789;51.364;12.358;2023-02-21T11:01:37;100419.88;;;14.40;86.36
15382;BME280;7789;51.364;12.358;2023-02-21T11:06:46;100420.13;;;14.37;86.41
15382;BME280;7789;51.364;12.358;2023-02-21T11:11:59;100417.75;;;14.43;86.27
15382;BME280;7789;51.364;12.358;2023-02-21T11:17:12;100405.44;;;14.44;86.24
15382;BME280;7789;51.364;12.358;2023-02-21T11:22:19;100402.94;;;14.42;86.00
15382;BME280;7789;51.364;12.358;2023-02-21T11:27:23;100397.38;;;14.45;85.81
15382;BME280;7789;51.364;12.358;2023-02-21T11:32:33;100402.03;;;14.34;85.41
15382;BME280;7789;51.364;12.358;2023-02-21T11:37:47;100393.31;;;14.33;85.17
15382;BME280;7789;51.364;12.358;2023-02-21T11:42:51;100388.66;;;14.27;85.81
15382;BME280;7789;51.364;12.358;2023-02-21T11:48:15;100385.03;;;14.28;86.45
15382;BME280;7789;51.364;12.358;2023-02-21T11:53:31;100374.97;;;14.41;86.13
15382;BME280;7789;51.364;12.358;2023-02-21T11:58:42;100363.28;;;14.53;86.15
15382;BME280;7789;51.364;12.358;2023-02-21T12:04:00;100357.56;;;14.58;85.19
15382;BME280;7789;51.364;12.358;2023-02-21T12:09:09;100362.88;;;14.66;84.87
15382;BME280;7789;51.364;12.358;2023-02-21T12:14:39;100353.84;;;14.85;83.77
15382;BME280;7789;51.364;12.358;2023-02-21T12:20:10;100342.13;;;15.05;83.07
15382;BME280;7789;51.364;12.358;2023-02-21T12:25:22;100342.25;;;15.21;82.04
15382;BME280;7789;51.364;12.358;2023-02-21T12:30:46;100342.16;;;15.31;82.40
15382;BME280;7789;51.364;12.358;2023-02-21T12:36:09;100326.34;;;15.31;81.05
15382;BME280;7789;51.364;12.358;2023-02-21T12:41:30;100322.16;;;15.20;81.23
15382;BME280;7789;51.364;12.358;2023-02-21T12:46:42;100324.88;;;15.11;80.58
15382;BME280;7789;51.364;12.358;2023-02-21T12:51:55;100320.88;;;14.99;80.38
15382;BME280;7789;51.364;12.358;2023-02-21T12:57:04;100324.66;;;14.96;80.32
15382;BME280;7789;51.364;12.358;2023-02-21T13:02:14;100324.22;;;15.09;80.58
15382;BME280;7789;51.364;12.358;2023-02-21T13:07:23;100319.91;;;15.00;80.08
15382;BME280;7789;51.364;12.358;2023-02-21T13:12:35;100312.16;;;14.98;80.15
15382;BME280;7789;51.364;12.358;2023-02-21T13:17:40;100311.41;;;14.88;81.13
15382;BME280;7789;51.364;12.358;2023-02-21T13:28:29;100307.09;;;14.80;80.90
15382;BME280;7789;51.364;12.358;2023-02-21T13:33:43;100307.28;;;14.86;80.70
15382;BME280;7789;51.364;12.358;2023-02-21T13:39:02;100301.94;;;14.95;81.15
15382;BME280;7789;51.364;12.358;2023-02-21T13:44:09;100296.59;;;14.87;80.59
15382;BME280;7789;51.364;12.358;2023-02-21T13:49:35;100305.97;;;14.82;80.96
15382;BME280;7789;51.364;12.358;2023-02-21T13:55:08;100298.66;;;14.76;81.75
15382;BME280;7789;51.364;12.358;2023-02-21T14:00:50;100311.00;;;14.76;81.81
15382;BME280;7789;51.364;12.358;2023-02-21T14:06:29;100297.00;;;14.75;82.65
15382;BME280;7789;51.364;12.358;2023-02-21T14:11:37;100301.75;;;14.72;83.14
15382;BME280;7789;51.364;12.358;2023-02-21T14:16:47;100300.41;;;14.68;83.35
15382;BME280;7789;51.364;12.358;2023-02-21T14:21:58;100300.03;;;14.63;83.53
15382;BME280;7789;51.364;12.358;2023-02-21T14:27:33;100299.59;;;14.67;83.76
15382;BME280;7789;51.364;12.358;2023-02-21T14:32:40;100291.16;;;14.64;83.59
15382;BME280;7789;51.364;12.358;2023-02-21T14:37:51;100304.19;;;14.65;83.04
15382;BME280;7789;51.364;12.358;2023-02-21T14:43:07;100291.22;;;14.72;83.08
15382;BME280;7789;51.364;12.358;2023-02-21T14:48:25;100297.19;;;14.74;82.55
15382;BME280;7789;51.364;12.358;2023-02-21T14:54:04;100293.41;;;14.76;82.09
15382;BME280;7789;51.364;12.358;2023-02-21T15:04:57;100307.19;;;14.70;82.20
15382;BME280;7789;51.364;12.358;2023-02-21T15:10:15;100308.97;;;14.70;81.22
15382;BME280;7789;51.364;12.358;2023-02-21T15:15:25;100320.78;;;14.66;81.77
15382;BME280;7789;51.364;12.358;2023-02-21T15:20:30;100316.53;;;14.47;82.54
15382;BME280;7789;51.364;12.358;2023-02-21T15:25:34;100313.50;;;14.42;82.18
15382;BME280;7789;51.364;12.358;2023-02-21T15:30:41;100314.72;;;14.48;82.41
15382;BME280;7789;51.364;12.358;2023-02-21T15:35:51;100314.72;;;14.48;81.57
15382;BME280;7789;51.364;12.358;2023-02-21T15:41:00;100317.13;;;14.41;81.33
15382;BME280;7789;51.364;12.358;2023-02-21T15:46:07;100323.44;;;14.31;81.90
15382;BME280;7789;51.364;12.358;2023-02-21T15:51:12;100329.31;;;14.25;82.07
15382;BME280;7789;51.364;12.358;2023-02-21T15:56:22;100323.13;;;14.16;81.11
15382;BME280;7789;51.364;12.358;2023-02-21T16:01:27;100329.69;;;14.03;80.40
15382;BME280;7789;51.364;12.358;2023-02-21T16:06:30;100332.22;;;13.95;80.56
15382;BME280;7789;51.364;12.358;2023-02-21T16:11:39;100329.66;;;13.85;80.76
15382;BME280;7789;51.364;12.358;2023-02-21T16:16:46;100341.75;;;13.69;81.31
15382;BME280;7789;51.364;12.358;2023-02-21T16:22:10;100339.09;;;13.51;81.07
15382;BME280;7789;51.364;12.358;2023-02-21T16:27:16;100338.03;;;13.35;82.12
15382;BME280;7789;51.364;12.358;2023-02-21T16:32:21;100338.94;;;13.16;82.16
15382;BME280;7789;51.364;12.358;2023-02-21T16:37:24;100346.56;;;13.10;82.75
15382;BME280;7789;51.364;12.358;2023-02-21T16:42:29;100350.16;;;13.09;82.70
15382;BME280;7789;51.364;12.358;2023-02-21T16:47:34;100350.97;;;13.09;82.93
15382;BME280;7789;51.364;12.358;2023-02-21T16:52:37;100355.41;;;13.09;82.91
15382;BME280;7789;51.364;12.358;2023-02-21T16:57:40;100350.19;;;12.99;82.94
15382;BME280;7789;51.364;12.358;2023-02-21T17:02:45;100359.53;;;12.83;83.74
15382;BME280;7789;51.364;12.358;2023-02-21T17:07:49;100369.06;;;12.84;83.69
15382;BME280;7789;51.364;12.358;2023-02-21T17:12:52;100373.22;;;12.87;84.00
15382;BME280;7789;51.364;12.358;2023-02-21T17:17:57;100375.97;;;12.85;84.02
15382;BME280;7789;51.364;12.358;2023-02-21T17:23:00;100379.72;;;12.83;83.94
15382;BME280;7789;51.364;12.358;2023-02-21T17:28:04;100385.25;;;12.80;84.63
15382;BME280;7789;51.364;12.358;2023-02-21T17:33:13;100376.41;;;12.81;84.61
15382;BME280;7789;51.364;12.358;2023-02-21T17:38:16;100384.28;;;12.81;84.30
15382;BME280;7789;51.364;12.358;2023-02-21T17:43:19;100389.66;;;12.79;84.73
15382;BME280;7789;51.364;12.358;2023-02-21T17:48:24;100397.69;;;12.78;84.76
15382;BME280;7789;51.364;12.358;2023-02-21T17:53:28;100400.44;;;12.76;84.45
15382;BME280;7789;51.364;12.358;2023-02-21T17:58:32;100400.44;;;12.76;84.33
15382;BME280;7789;51.364;12.358;2023-02-21T18:03:37;100404.03;;;12.75;84.76
15382;BME280;7789;51.364;12.358;2023-02-21T18:08:40;100401.69;;;12.72;85.02
15382;BME280;7789;51.364;12.358;2023-02-21T18:13:45;100412.56;;;12.68;85.17
15382;BME280;7789;51.364;12.358;2023-02-21T18:18:50;100407.34;;;12.68;84.84
15382;BME280;7789;51.364;12.358;2023-02-21T18:23:54;100412.00;;;12.64;84.95
15382;BME280;7789;51.364;12.358;2023-02-21T18:28:57;100419.88;;;12.64;84.28
15382;BME280;7789;51.364;12.358;2023-02-21T18:34:04;100419.19;;;12.62;84.36
15382;BME280;7789;51.364;12.358;2023-02-21T18:39:08;100418.38;;;12.62;84.87
15382;BME280;7789;51.364;12.358;2023-02-21T18:44:14;100419.19;;;12.62;84.42
15382;BME280;7789;51.364;12.358;2023-02-21T18:49:21;100423.75;;;12.60;84.27
15382;BME280;7789;51.364;12.358;2023-02-21T18:54:24;100423.88;;;12.59;84.75
15382;BME280;7789;51.364;12.358;2023-02-21T18:59:28;100423.34;;;12.55;84.55
15382;BME280;7789;51.364;12.358;2023-02-21T19:04:33;100433.69;;;12.57;84.82
15382;BME280;7789;51.364;12.358;2023-02-21T19:09:36;100439.34;;;12.52;84.86
15382;BME280;7789;51.364;12.358;2023-02-21T19:14:39;100431.50;;;12.52;85.72
15382;BME280;7789;51.364;12.358;2023-02-21T19:19:44;100435.06;;;12.51;85.77
15382;BME280;7789;51.364;12.358;2023-02-21T19:24:48;100438.50;;;12.52;86.11
15382;BME280;7789;51.364;12.358;2023-02-21T19:29:51;100440.56;;;12.48;85.84
15382;BME280;7789;51.364;12.358;2023-02-21T19:34:56;100439.06;;;12.46;85.91
15382;BME280;7789;51.364;12.358;2023-02-21T19:39:59;100435.75;;;12.44;85.66
15382;BME280;7789;51.364;12.358;2023-02-21T19:45:03;100442.78;;;12.43;86.52
15382;BME280;7789;51.364;12.358;2023-02-21T19:50:08;100440.44;;;12.40;86.51
15382;BME280;7789;51.364;12.358;2023-02-21T19:55:12;100451.72;;;12.41;86.89
15382;BME280;7789;51.364;12.358;2023-02-21T20:00:16;100453.53;;;12.40;87.16
15382;BME280;7789;51.364;12.358;2023-02-21T20:05:22;100451.88;;;12.39;86.39
15382;BME280;7789;51.364;12.358;2023-02-21T20:10:25;100459.06;;;12.37;86.61
15382;BME280;7789;51.364;12.358;2023-02-21T20:15:28;100469.53;;;12.37;87.06
15382;BME280;7789;51.364;12.358;2023-02-21T20:20:32;100472.28;;;12.36;86.75
15382;BME280;7789;51.364;12.358;2023-02-21T20:25:36;100468.00;;;12.35;86.96
15382;BME280;7789;51.364;12.358;2023-02-21T20:30:39;100477.69;;;12.34;86.95
15382;BME280;7789;51.364;12.358;2023-02-21T20:35:44;100473.38;;;12.33;87.01
15382;BME280;7789;51.364;12.358;2023-02-21T20:40:48;100470.91;;;12.32;86.61
15382;BME280;7789;51.364;12.358;2023-02-21T20:45:51;100472.94;;;12.28;86.93
15382;BME280;7789;51.364;12.358;2023-02-21T20:50:57;100475.72;;;12.27;86.98
15382;BME280;7789;51.364;12.358;2023-02-21T20:56:01;100468.81;;;12.26;87.36
15382;BME280;7789;51.364;12.358;2023-02-21T21:01:05;100474.31;;;12.23;87.21
15382;BME280;7789;51.364;12.358;2023-02-21T21:06:11;100464.66;;;12.23;87.79
15382;BME280;7789;51.364;12.358;2023-02-21T21:11:14;100468.25;;;12.22;86.95
15382;BME280;7789;51.364;12.358;2023-02-21T21:16:18;100465.75;;;12.21;87.99
15382;BME280;7789;51.364;12.358;2023-02-21T21:21:27;100467.56;;;12.20;87.32
15382;BME280;7789;51.364;12.358;2023-02-21T21:26:31;100462.31;;;12.20;86.76
15382;BME280;7789;51.364;12.358;2023-02-21T21:31:34;100467.69;;;12.19;86.62
15382;BME280;7789;51.364;12.358;2023-02-21T21:36:42;100459.13;;;12.17;86.39
15382;BME280;7789;51.364;12.358;2023-02-21T21:41:48;100456.91;;;12.12;86.74
15382;BME280;7789;51.364;12.358;2023-02-21T21:46:53;100457.25;;;11.98;86.64
15382;BME280;7789;51.364;12.358;2023-02-21T21:51:58;100455.13;;;11.83;86.96
15382;BME280;7789;51.364;12.358;2023-02-21T21:57:02;100463.25;;;11.80;86.54
15382;BME280;7789;51.364;12.358;2023-02-21T22:02:06;100460.25;;;11.84;86.21
15382;BME280;7789;51.364;12.358;2023-02-21T22:07:13;100454.88;;;11.86;86.75
15382;BME280;7789;51.364;12.358;2023-02-21T22:12:18;100459.53;;;11.82;86.54
15382;BME280;7789;51.364;12.358;2023-02-21T22:17:22;100454.72;;;11.78;86.55
15382;BME280;7789;51.364;12.358;2023-02-21T22:22:26;100461.59;;;11.79;86.39
15382;BME280;7789;51.364;12.358;2023-02-21T22:27:29;100450.56;;;11.75;87.01
15382;BME280;7789;51.364;12.358;2023-02-21T22:32:32;100449.84;;;11.73;86.67
15382;BME280;7789;51.364;12.358;2023-02-21T22:37:37;100453.28;;;11.74;86.22
15382;BME280;7789;51.364;12.358;2023-02-21T22:42:43;100454.13;;;11.74;86.72
15382;BME280;7789;51.364;12.358;2023-02-21T22:47:48;100446.38;;;11.73;87.80
15382;BME280;7789;51.364;12.358;2023-02-21T22:52:54;100448.19;;;11.72;87.19
15382;BME280;7789;51.364;12.358;2023-02-21T22:57:58;100445.38;;;11.64;87.39
15382;BME280;7789;51.364;12.358;2023-02-21T23:03:03;100438.34;;;11.44;87.99
15382;BME280;7789;51.364;12.358;2023-02-21T23:08:16;100431.47;;;11.23;88.75
15382;BME280;7789;51.364;12.358;2023-02-21T23:13:22;100431.13;;;11.07;89.35
15382;BME280;7789;51.364;12.358;2023-02-21T23:18:26;100432.13;;;10.95;90.35
15382;BME280;7789;51.364;12.358;2023-02-21T23:23:31;100425.25;;;10.83;90.05
15382;BME280;7789;51.364;12.358;2023-02-21T23:28:34;100426.03;;;10.74;91.02
15382;BME280;7789;51.364;12.358;2023-02-21T23:33:37;100419.03;;;10.64;91.22
15382;BME280;7789;51.364;12.358;2023-02-21T23:38:42;100424.06;;;10.56;90.71
15382;BME280;7789;51.364;12.358;2023-02-21T23:43:46;100428.72;;;10.52;91.17
15382;BME280;7789;51.364;12.358;2023-02-21T23:48:52;100445.94;;;10.55;91.54
15382;BME280;7789;51.364;12.358;2023-02-21T23:53:56;100430.97;;;10.57;91.81
15382;BME280;7789;51.364;12.358;2023-02-21T23:59:00;100437.84;;;10.58;92.09
